createdAt,value
2022-10-05T00:01:28.037Z,9.20
2022-10-05T00:04:04.859Z,8.90
2022-10-05T00:06:35.712Z,10.30
2022-10-05T00:09:15.441Z,8.60
2022-10-05T00:11:46.831Z,12.10
2022-10-05T00:14:20.338Z,10.70
2022-10-05T00:16:52.767Z,9.33
2022-10-05T00:19:26.523Z,10.33
2022-10-05T00:22:01.250Z,10.50
2022-10-05T00:24:32.767Z,10.13
2022-10-05T00:27:04.621Z,11.47
2022-10-05T00:29:38.124Z,9.83
2022-10-05T00:32:12.484Z,9.10
2022-10-05T00:34:44.305Z,9.00
2022-10-05T00:37:16.425Z,8.60
2022-10-05T00:39:47.663Z,8.57
2022-10-05T00:42:39.021Z,7.80
2022-10-05T00:45:15.864Z,9.30
2022-10-05T00:48:00.234Z,8.97
2022-10-05T00:50:50.466Z,8.17
2022-10-05T00:53:33.406Z,7.03
2022-10-05T00:56:10.135Z,13.67
2022-10-05T00:58:55.591Z,14.00
2022-10-05T01:01:33.550Z,11.93
2022-10-05T01:04:15.994Z,24.80
2022-10-05T01:06:58.049Z,13.27
2022-10-05T01:09:36.004Z,48.20
2022-10-05T01:12:15.726Z,38.83
2022-10-05T01:14:54.088Z,23.97
2022-10-05T01:17:31.783Z,19.03
2022-10-05T01:20:28.307Z,11.83
2022-10-05T01:23:27.616Z,10.80
2022-10-05T01:26:14.671Z,11.43
2022-10-05T01:28:49.743Z,9.93
2022-10-05T01:31:27.111Z,9.57
2022-10-05T01:34:11.217Z,7.80
2022-10-05T01:36:51.353Z,7.47
2022-10-05T01:39:32.746Z,8.73
2022-10-05T01:42:11.848Z,10.07
2022-10-05T01:44:52.108Z,7.70
2022-10-05T01:47:33.760Z,8.00
2022-10-05T01:50:09.901Z,7.70
2022-10-05T01:52:50.948Z,9.73
2022-10-05T01:55:27.719Z,8.23
2022-10-05T01:58:09.175Z,7.43
2022-10-05T02:00:48.840Z,7.00
2022-10-05T02:03:23.837Z,7.63
2022-10-05T02:05:59.132Z,9.07
2022-10-05T02:08:37.478Z,9.17
2022-10-05T02:11:11.143Z,7.57
2022-10-05T02:13:44.977Z,7.87
2022-10-05T02:16:21.787Z,8.50
2022-10-05T02:18:55.659Z,7.40
2022-10-05T02:21:27.768Z,7.80
2022-10-05T02:24:02.654Z,7.17
2022-10-05T02:26:36.053Z,9.13
2022-10-05T02:29:10.365Z,7.70
2022-10-05T02:31:47.647Z,8.50
2022-10-05T02:34:26.533Z,10.30
2022-10-05T02:37:10.581Z,9.60
2022-10-05T02:39:49.942Z,9.43
2022-10-05T02:42:30.584Z,7.57
2022-10-05T02:45:12.558Z,8.20
2022-10-05T02:47:52.070Z,7.07
2022-10-05T02:50:29.884Z,8.03
2022-10-05T02:53:15.469Z,9.13
2022-10-05T02:55:56.149Z,7.80
2022-10-05T02:58:30.568Z,9.30
2022-10-05T03:01:06.285Z,10.80
2022-10-05T03:03:44.592Z,9.00
2022-10-05T03:06:23.165Z,9.07
2022-10-05T03:09:02.609Z,7.23
2022-10-05T03:11:44.441Z,7.23
2022-10-05T03:14:21.593Z,9.17
2022-10-05T03:17:06.473Z,9.73
2022-10-05T03:20:05.575Z,10.93
2022-10-05T03:22:49.463Z,8.70
2022-10-05T03:25:59.813Z,8.87
2022-10-05T03:28:35.878Z,8.30
2022-10-05T03:31:09.523Z,9.90
2022-10-05T03:33:49.549Z,7.63
2022-10-05T03:36:29.941Z,10.17
2022-10-05T03:39:06.102Z,8.23
2022-10-05T03:41:44.874Z,11.07
2022-10-05T03:44:27.241Z,12.40
2022-10-05T03:47:10.322Z,7.67
2022-10-05T03:50:03.619Z,9.23
2022-10-05T03:52:41.286Z,9.23
2022-10-05T03:55:23.226Z,9.60
2022-10-05T03:57:57.350Z,7.43
2022-10-05T04:00:28.460Z,10.63
2022-10-05T04:03:05.775Z,9.80
2022-10-05T04:05:41.946Z,8.43
2022-10-05T04:08:23.386Z,10.33
2022-10-05T04:10:56.969Z,9.37
2022-10-05T04:13:34.042Z,9.03
2022-10-05T04:16:09.396Z,9.70
2022-10-05T04:18:44.116Z,9.53
2022-10-05T04:21:23.742Z,8.80
2022-10-05T04:24:01.704Z,12.20
2022-10-05T04:26:39.942Z,9.80
2022-10-05T04:29:19.111Z,9.73
2022-10-05T04:32:09.097Z,11.00
2022-10-05T04:35:02.217Z,8.87
2022-10-05T04:37:46.647Z,9.60
2022-10-05T04:40:32.591Z,9.97
2022-10-05T04:43:12.170Z,9.33
2022-10-05T04:45:59.010Z,9.00
2022-10-05T04:48:49.636Z,11.90
2022-10-05T04:51:32.724Z,8.80
2022-10-05T04:54:14.655Z,8.57
2022-10-05T04:56:52.041Z,12.37
2022-10-05T04:59:42.404Z,9.17
2022-10-05T05:02:25.191Z,10.20
2022-10-05T05:05:20.150Z,11.07
2022-10-05T05:07:56.691Z,9.63
2022-10-05T05:10:50.235Z,8.10
2022-10-05T05:13:47.680Z,10.30
2022-10-05T05:16:31.134Z,8.13
2022-10-05T05:19:27.979Z,10.67
2022-10-05T05:22:05.981Z,9.53
2022-10-05T05:24:49.250Z,8.10
2022-10-05T05:27:43.237Z,7.60
2022-10-05T05:30:24.762Z,9.13
2022-10-05T05:33:17.688Z,10.97
2022-10-05T05:36:23.024Z,8.43
2022-10-05T05:39:04.676Z,8.40
2022-10-05T05:41:41.450Z,8.27
2022-10-05T05:44:22.627Z,7.93
2022-10-05T05:47:04.432Z,7.80
2022-10-05T05:49:47.799Z,8.37
2022-10-05T05:52:24.593Z,8.63
2022-10-05T05:55:00.819Z,9.03
2022-10-05T05:57:35.207Z,8.13
2022-10-05T06:00:10.023Z,9.20
2022-10-05T06:02:48.784Z,7.57
2022-10-05T06:05:31.466Z,10.03
2022-10-05T06:08:07.715Z,9.97
2022-10-05T06:10:45.854Z,9.50
2022-10-05T06:13:22.273Z,8.40
2022-10-05T06:15:58.465Z,9.83
2022-10-05T06:18:34.540Z,13.67
2022-10-05T06:21:10.805Z,11.07
2022-10-05T06:23:45.925Z,9.70
2022-10-05T06:26:32.523Z,11.80
2022-10-05T06:29:08.299Z,9.67
2022-10-05T06:31:58.882Z,10.70
2022-10-05T06:34:48.554Z,10.23
2022-10-05T06:37:26.601Z,11.53
2022-10-05T06:40:13.906Z,9.00
2022-10-05T06:43:23.916Z,13.27
2022-10-05T06:46:10.282Z,10.97
2022-10-05T06:49:04.576Z,12.30
2022-10-05T06:51:41.531Z,11.13
2022-10-05T06:54:25.697Z,13.20
2022-10-05T06:57:04.882Z,9.03
2022-10-05T06:59:44.106Z,11.27
2022-10-05T07:02:24.176Z,12.40
2022-10-05T07:05:17.499Z,11.90
2022-10-05T07:07:57.407Z,13.60
2022-10-05T07:10:34.986Z,11.43
2022-10-05T07:13:22.514Z,14.70
2022-10-05T07:16:01.624Z,15.27
2022-10-05T07:18:51.006Z,14.87
2022-10-05T07:21:36.464Z,12.40
2022-10-05T07:24:23.502Z,16.70
2022-10-05T07:27:04.300Z,19.37
2022-10-05T07:29:41.739Z,18.87
2022-10-05T07:32:23.022Z,17.33
2022-10-05T07:35:01.531Z,17.73
2022-10-05T07:37:58.522Z,16.43
2022-10-05T07:40:33.298Z,17.77
2022-10-05T07:43:21.522Z,18.53
2022-10-05T07:45:57.617Z,19.13
2022-10-05T07:48:48.508Z,18.57
2022-10-05T07:51:30.860Z,18.10
2022-10-05T07:54:12.886Z,20.50
2022-10-05T07:56:47.427Z,17.77
2022-10-05T07:59:26.380Z,19.03
2022-10-05T08:02:08.324Z,18.33
2022-10-05T08:04:47.597Z,16.50
2022-10-05T08:07:20.652Z,18.97
2022-10-05T08:09:58.278Z,19.37
2022-10-05T08:12:52.701Z,17.63
2022-10-05T08:15:26.483Z,17.87
2022-10-05T08:18:02.304Z,16.13
2022-10-05T08:20:45.023Z,18.20
2022-10-05T08:23:33.976Z,14.70
2022-10-05T08:26:17.854Z,14.67
2022-10-05T08:28:57.003Z,17.30
2022-10-05T08:31:32.559Z,15.37
2022-10-05T08:34:21.022Z,17.10
2022-10-05T08:36:59.518Z,13.37
2022-10-05T08:39:35.048Z,15.00
2022-10-05T08:42:40.077Z,17.40
2022-10-05T08:45:43.634Z,14.60
2022-10-05T08:49:01.056Z,15.40
2022-10-05T08:52:04.885Z,14.90
2022-10-05T08:54:57.121Z,15.60
2022-10-05T08:57:56.733Z,19.33
2022-10-05T09:00:41.605Z,15.70
2022-10-05T09:03:38.583Z,20.50
2022-10-05T09:07:08.905Z,15.70
2022-10-05T09:10:10.755Z,15.93
2022-10-05T09:13:09.043Z,13.50
2022-10-05T09:16:14.463Z,15.80
2022-10-05T09:19:10.286Z,16.97
2022-10-05T09:21:44.763Z,16.63
2022-10-05T09:24:48.703Z,14.27
2022-10-05T09:27:21.063Z,13.67
2022-10-05T09:30:32.732Z,17.40
2022-10-05T09:33:33.586Z,14.40
2022-10-05T09:36:28.837Z,14.33
2022-10-05T09:39:31.806Z,14.07
2022-10-05T09:42:33.923Z,14.80
2022-10-05T09:45:42.703Z,14.57
2022-10-05T09:48:50.593Z,13.37
2022-10-05T09:52:02.241Z,15.33
2022-10-05T09:55:12.463Z,15.80
2022-10-05T09:58:15.942Z,16.10
2022-10-05T10:01:33.234Z,13.90
2022-10-05T10:04:31.232Z,16.57
2022-10-05T10:07:43.367Z,13.93
2022-10-05T10:10:44.601Z,13.80
2022-10-05T10:13:40.897Z,14.00
2022-10-05T10:16:33.255Z,17.93
2022-10-05T10:19:18.670Z,15.23
2022-10-05T10:22:24.887Z,13.33
2022-10-05T10:25:13.782Z,15.07
2022-10-05T10:28:11.414Z,13.20
2022-10-05T10:31:04.738Z,13.90
2022-10-05T10:34:09.303Z,14.00
2022-10-05T10:37:01.422Z,13.73
2022-10-05T10:39:51.396Z,14.30
2022-10-05T10:42:34.637Z,15.27
2022-10-05T10:45:22.012Z,13.30
2022-10-05T10:48:05.762Z,14.50
2022-10-05T10:51:06.422Z,20.87
2022-10-05T10:54:06.398Z,22.13
2022-10-05T10:56:58.852Z,21.57
2022-10-05T11:00:17.083Z,18.57
2022-10-05T11:03:28.810Z,18.57
2022-10-05T11:06:17.938Z,20.30
2022-10-05T11:09:28.363Z,18.03
2022-10-05T11:12:48.434Z,16.90
2022-10-05T11:15:58.565Z,15.27
2022-10-05T11:18:44.077Z,17.70
2022-10-05T11:21:31.187Z,19.93
2022-10-05T11:24:46.436Z,15.90
2022-10-05T11:27:57.178Z,16.67
2022-10-05T11:31:02.607Z,12.17
2022-10-05T11:34:06.033Z,18.77
2022-10-05T11:37:10.103Z,16.07
2022-10-05T11:39:46.907Z,15.30
2022-10-05T11:43:05.615Z,15.60
2022-10-05T11:45:54.491Z,16.70
2022-10-05T11:48:48.555Z,16.03
2022-10-05T11:51:41.026Z,17.30
2022-10-05T11:54:28.619Z,12.67
2022-10-05T11:57:04.638Z,15.50
2022-10-05T11:59:41.881Z,16.90
2022-10-05T12:02:38.925Z,15.63
2022-10-05T12:05:20.254Z,13.80
2022-10-05T12:08:04.989Z,13.67
2022-10-05T12:10:45.893Z,15.10
2022-10-05T12:13:26.116Z,15.77
2022-10-05T12:16:02.230Z,13.73
2022-10-05T12:18:55.146Z,13.33
2022-10-05T12:21:35.133Z,12.87
2022-10-05T12:24:12.226Z,15.23
2022-10-05T12:26:50.005Z,19.07
2022-10-05T12:29:26.411Z,17.87
2022-10-05T12:32:03.790Z,15.13
2022-10-05T12:34:50.085Z,16.83
2022-10-05T12:37:43.549Z,16.50
2022-10-05T12:40:35.892Z,16.23
2022-10-05T12:43:14.362Z,20.10
2022-10-05T12:45:59.935Z,16.10
2022-10-05T12:48:45.283Z,16.60
2022-10-05T12:51:25.056Z,15.30
2022-10-05T12:54:02.902Z,12.87
2022-10-05T12:56:44.533Z,16.23
2022-10-05T12:59:22.736Z,15.70
2022-10-05T13:02:00.437Z,20.30
2022-10-05T13:04:42.313Z,16.63
2022-10-05T13:07:39.419Z,16.93
2022-10-05T13:10:25.515Z,20.47
2022-10-05T13:13:06.567Z,18.77
2022-10-05T13:15:47.858Z,15.10
2022-10-05T13:18:28.451Z,15.60
2022-10-05T13:21:06.863Z,16.93
2022-10-05T13:23:55.081Z,15.23
2022-10-05T13:26:35.483Z,18.10
2022-10-05T13:29:16.454Z,21.47
2022-10-05T13:31:50.953Z,18.20
2022-10-05T13:34:30.747Z,20.83
2022-10-05T13:37:15.022Z,16.13
2022-10-05T13:40:07.830Z,17.63
2022-10-05T13:42:43.906Z,17.30
2022-10-05T13:45:21.283Z,16.80
2022-10-05T13:48:11.710Z,23.70
2022-10-05T13:50:50.570Z,20.00
2022-10-05T13:53:29.367Z,16.87
2022-10-05T13:56:05.714Z,18.50
2022-10-05T13:58:43.849Z,16.80
2022-10-05T14:01:19.858Z,19.57
2022-10-05T14:04:09.707Z,20.90
2022-10-05T14:06:41.579Z,19.13
2022-10-05T14:09:28.923Z,20.40
2022-10-05T14:12:16.607Z,16.93
2022-10-05T14:14:50.189Z,23.10
2022-10-05T14:17:41.092Z,23.17
2022-10-05T14:20:28.069Z,25.97
2022-10-05T14:23:03.103Z,23.07
2022-10-05T14:25:48.015Z,16.53
2022-10-05T14:28:31.754Z,20.40
2022-10-05T14:31:04.104Z,15.73
2022-10-05T14:33:37.585Z,19.70
2022-10-05T14:36:14.823Z,17.97
2022-10-05T14:38:55.881Z,21.50
2022-10-05T14:41:31.304Z,17.80
2022-10-05T14:44:09.737Z,19.37
2022-10-05T14:46:41.070Z,17.90
2022-10-05T14:49:23.615Z,17.90
2022-10-05T14:51:55.023Z,18.80
2022-10-05T14:54:32.660Z,21.27
2022-10-05T14:57:12.410Z,19.10
2022-10-05T15:00:07.071Z,17.67
2022-10-05T15:03:21.178Z,19.03
2022-10-05T15:05:55.665Z,17.47
2022-10-05T15:08:50.613Z,20.17
2022-10-05T15:11:30.553Z,16.40
2022-10-05T15:14:03.598Z,17.67
2022-10-05T15:16:41.302Z,13.60
2022-10-05T15:19:21.646Z,13.93
2022-10-05T15:22:11.594Z,18.10
2022-10-05T15:24:48.213Z,11.67
2022-10-05T15:27:31.615Z,12.13
2022-10-05T15:30:12.029Z,11.93
2022-10-05T15:33:00.899Z,10.47
2022-10-05T15:35:41.290Z,10.17
2022-10-05T15:38:25.322Z,12.43
2022-10-05T15:41:17.561Z,12.20
2022-10-05T15:44:06.630Z,14.77
2022-10-05T15:46:43.542Z,11.00
2022-10-05T15:49:29.324Z,13.07
2022-10-05T15:52:06.402Z,12.17
2022-10-05T15:55:17.654Z,12.23
2022-10-05T15:57:56.041Z,8.37
2022-10-05T16:00:28.219Z,11.63
2022-10-05T16:03:07.899Z,13.87
2022-10-05T16:06:03.473Z,11.33
2022-10-05T16:08:54.950Z,8.80
2022-10-05T16:11:36.702Z,11.30
2022-10-05T16:14:22.190Z,10.20
2022-10-05T16:17:01.637Z,9.17
2022-10-05T16:19:38.197Z,8.40
2022-10-05T16:22:23.030Z,13.47
2022-10-05T16:25:07.470Z,9.77
2022-10-05T16:27:51.170Z,12.13
2022-10-05T16:30:24.518Z,9.87
2022-10-05T16:33:03.414Z,10.20
2022-10-05T16:35:45.894Z,12.27
2022-10-05T16:38:28.342Z,9.00
2022-10-05T16:41:05.710Z,9.83
2022-10-05T16:43:45.618Z,10.67
2022-10-05T16:46:27.949Z,10.00
2022-10-05T16:49:09.816Z,9.50
2022-10-05T16:51:51.804Z,9.47
2022-10-05T16:54:28.061Z,8.53
2022-10-05T16:57:03.042Z,9.73
2022-10-05T17:00:05.802Z,9.33
2022-10-05T17:03:00.256Z,9.67
2022-10-05T17:05:46.564Z,6.50
2022-10-05T17:08:41.603Z,16.03
2022-10-05T17:11:23.795Z,9.80
2022-10-05T17:14:22.993Z,6.23
2022-10-05T17:17:16.889Z,8.77
2022-10-05T17:19:54.634Z,7.67
2022-10-05T17:22:31.712Z,7.17
2022-10-05T17:25:09.418Z,6.60
2022-10-05T17:27:54.739Z,6.73
2022-10-05T17:30:54.739Z,7.70
2022-10-05T17:33:28.357Z,4.73
2022-10-05T17:36:20.789Z,6.37
2022-10-05T17:39:13.705Z,5.70
2022-10-05T17:41:44.840Z,3.87
2022-10-05T17:44:30.041Z,5.33
2022-10-05T17:47:02.238Z,5.60
2022-10-05T17:50:17.525Z,6.63
2022-10-05T17:53:25.486Z,4.73
2022-10-05T17:56:06.677Z,5.27
2022-10-05T17:59:04.617Z,5.07
2022-10-05T18:01:42.250Z,5.67
2022-10-05T18:04:51.963Z,7.30
2022-10-05T18:07:25.420Z,5.00
2022-10-05T18:10:02.190Z,4.23
2022-10-05T18:12:52.568Z,4.23
2022-10-05T18:15:49.372Z,5.13
2022-10-05T18:18:59.534Z,4.20
2022-10-05T18:21:42.378Z,4.00
2022-10-05T18:24:53.866Z,4.30
2022-10-05T18:28:01.549Z,6.97
2022-10-05T18:30:39.170Z,3.97
2022-10-05T18:33:45.823Z,5.40
2022-10-05T18:36:34.158Z,4.63
2022-10-05T18:39:16.070Z,4.47
2022-10-05T18:42:00.401Z,4.30
2022-10-05T18:44:41.873Z,4.47
2022-10-05T18:47:20.659Z,3.83
2022-10-05T18:50:08.108Z,4.10
2022-10-05T18:52:55.142Z,5.60
2022-10-05T18:55:35.828Z,5.03
2022-10-05T18:58:19.815Z,5.00
2022-10-05T19:01:04.835Z,4.93
2022-10-05T19:03:42.875Z,4.47
2022-10-05T19:06:25.163Z,6.00
2022-10-05T19:09:09.454Z,4.53
2022-10-05T19:11:50.860Z,4.90
2022-10-05T19:14:32.016Z,4.70
2022-10-05T19:17:26.866Z,4.10
2022-10-05T19:20:18.179Z,4.40
2022-10-05T19:23:06.065Z,4.40
2022-10-05T19:25:41.954Z,4.03
2022-10-05T19:28:23.192Z,4.57
2022-10-05T19:31:04.123Z,4.67
2022-10-05T19:33:54.286Z,3.80
2022-10-05T19:36:48.018Z,4.77
2022-10-05T19:39:27.553Z,4.60
2022-10-05T19:42:17.805Z,6.63
2022-10-05T19:45:00.716Z,3.80
2022-10-05T19:47:44.351Z,7.43
2022-10-05T19:50:29.908Z,4.40
2022-10-05T19:53:04.999Z,4.40
2022-10-05T19:55:38.443Z,4.33
2022-10-05T19:58:21.870Z,6.17
2022-10-05T20:00:59.963Z,4.53
2022-10-05T20:03:32.453Z,4.70
2022-10-05T20:06:05.776Z,4.80
2022-10-05T20:08:43.771Z,4.93
2022-10-05T20:11:16.022Z,5.03
2022-10-05T20:13:47.845Z,3.60
2022-10-05T20:16:49.586Z,5.33
2022-10-05T20:19:56.311Z,4.53
2022-10-05T20:22:29.674Z,4.43
2022-10-05T20:25:02.476Z,5.17
2022-10-05T20:27:50.577Z,5.20
2022-10-05T20:30:23.153Z,5.17
2022-10-05T20:32:59.002Z,7.10
2022-10-05T20:35:31.411Z,6.87
2022-10-05T20:38:02.581Z,5.70
2022-10-05T20:40:33.919Z,6.17
2022-10-05T20:43:04.672Z,9.13
2022-10-05T20:45:35.450Z,4.97
2022-10-05T20:48:07.939Z,6.40
2022-10-05T20:50:38.844Z,5.63
2022-10-05T20:53:12.149Z,5.73
2022-10-05T20:55:43.949Z,5.87
2022-10-05T20:58:14.715Z,5.70
2022-10-05T21:01:02.703Z,4.80
2022-10-05T21:03:35.159Z,6.20
2022-10-05T21:06:06.015Z,6.10
2022-10-05T21:08:37.097Z,5.97
2022-10-05T21:11:09.799Z,6.20
2022-10-05T21:13:43.219Z,7.50
2022-10-05T21:16:14.695Z,5.10
2022-10-05T21:18:48.655Z,5.30
2022-10-05T21:21:20.099Z,5.77
2022-10-05T21:23:52.015Z,5.50
2022-10-05T21:26:23.176Z,8.70
2022-10-05T21:28:53.940Z,7.70
2022-10-05T21:31:24.745Z,6.13
2022-10-05T21:33:57.698Z,7.53
2022-10-05T21:36:28.498Z,7.10
2022-10-05T21:38:59.395Z,7.17
2022-10-05T21:41:30.486Z,7.27
2022-10-05T21:44:01.221Z,10.03
2022-10-05T21:46:32.509Z,6.70
2022-10-05T21:49:05.206Z,7.97
2022-10-05T21:51:37.969Z,9.90
2022-10-05T21:54:13.659Z,8.00
2022-10-05T21:56:46.810Z,9.47
2022-10-05T21:59:21.222Z,8.37
2022-10-05T22:01:51.973Z,8.00
2022-10-05T22:04:24.589Z,7.30
2022-10-05T22:06:55.517Z,7.50
2022-10-05T22:09:26.239Z,8.27
2022-10-05T22:11:59.210Z,8.37
2022-10-05T22:14:30.001Z,7.13
2022-10-05T22:17:02.274Z,6.00
2022-10-05T22:19:34.719Z,7.57
2022-10-05T22:22:09.810Z,9.47
2022-10-05T22:24:42.519Z,7.87
2022-10-05T22:27:13.341Z,7.30
2022-10-05T22:29:44.537Z,9.90
2022-10-05T22:32:15.318Z,8.97
2022-10-05T22:34:47.710Z,8.27
2022-10-05T22:37:18.456Z,9.00
2022-10-05T22:39:49.192Z,8.50
2022-10-05T22:42:19.935Z,9.30
2022-10-05T22:44:51.111Z,9.87
2022-10-05T22:47:21.906Z,9.17
2022-10-05T22:49:54.290Z,8.77
2022-10-05T22:52:25.318Z,8.03
2022-10-05T22:54:56.182Z,10.13
2022-10-05T22:57:27.527Z,9.00
2022-10-05T22:59:58.894Z,10.60
2022-10-05T23:02:29.647Z,8.83
2022-10-05T23:05:02.043Z,9.37
2022-10-05T23:07:39.061Z,10.10
2022-10-05T23:10:11.318Z,10.30
2022-10-05T23:12:42.105Z,10.80
2022-10-05T23:15:14.300Z,9.23
2022-10-05T23:17:45.256Z,9.70
2022-10-05T23:20:17.754Z,9.47
2022-10-05T23:22:48.527Z,9.93
2022-10-05T23:25:19.369Z,9.43
2022-10-05T23:27:50.112Z,10.20
2022-10-05T23:30:20.989Z,8.57
2022-10-05T23:32:51.765Z,7.90
2022-10-05T23:35:24.155Z,10.03
2022-10-05T23:37:54.938Z,8.43
2022-10-05T23:40:25.675Z,7.20
2022-10-05T23:42:56.766Z,7.00
2022-10-05T23:45:27.526Z,7.53
2022-10-05T23:47:58.288Z,7.10
2022-10-05T23:50:30.698Z,7.03
2022-10-05T23:53:01.465Z,7.47
2022-10-05T23:55:32.193Z,6.90
2022-10-05T23:58:02.915Z,8.07
